Aérodrome :
LOGIN :

S'inscrire | Disclaimer

   EN    FR    IT 

 










Légende :    VFR   VFR Marginal   IFR   IFR Intensif   IFR Très Intensif
Visi : 
Plafond : 
>= 8 km
>= 3000ft
5 à 8 km
1000 à 3000 ft
1500m à 5 km
500 à 1000 ft
800 à 1500m
200 à 500 ft
< 800m
< 200 ft
Symboles :   Orages  Brouillard  Fortes neiges  Fortes précipitations  Vent > 20 kt
SIGMETs :   Divers  Orages  Givrage  Turbulence  Onde Orograph.  Cendres Volcan.






- Altitude de l'aérodrome : 202 ft
- Code IATA : LGW


EGKK - London Gatwick

DERNIER METAR :
  • 270320Z 22008KT 9999 SCT015 BKN025 08/07 Q1005

METARs EXPIRÉS :
  • 270250Z 22007KT 9999 SCT013 BKN024 08/08 Q1005
  • 270220Z 22008KT 9999 FEW019 BKN025 09/08 Q1005
  • 270150Z 21008KT 9999 SCT010 BKN015 BKN019 09/08 Q1005
  • 270120Z 22008KT 9999 BKN010 BKN015 09/08 Q1006
  • 270050Z 22008KT 9999 -RA SCT006 SCT009 BKN014 08/08 Q1006
  • 270020Z 22007KT 4400 -RA FEW007 SCT018 BKN024 09/08 Q1006

TAF AMD TAF EGKK
Valide du 27 à 00h jusqu'au 28 à 06h UTC


270055Z 2700/2806 22008KT 9999 SCT010
TEMPO 2700/2706 BKN009
PROB30
TEMPO 2700/2703 4000 SHRA
PROB30
TEMPO 2706/2716 7000 SHRA BKN012
TEMPO 2716/2802 7000 SHRA BKN012
PROB30
TEMPO 2716/2724 4000 +SHRA BKN009
PROB30
TEMPO 2802/2806 25015G25KT 7000 -SHRA BKN012



MET'MAP, la Météo Aéronautique d'un coup d'oeil ! - Copyright ORBIFLY Décembre 2007 - Disclaimer

ORBIFLY MET'MAP TEAM :

Programmation & Développement : Alexandra Zaïnal
Sur une idée originale de : Baudouin d'Aumeries
Assistance à la programmation : Marc-Olivier Méhu
Soutien technique & logistique : Manuel Goepfert

Contact : metmap@orbifly.com




SOURCES & CREDITS :

   NOAA